sensor_id;sensor_type;location;lat;lon;timestamp;pressure;altitude;pressure_sealevel;temperature;humidity
15568;BME280;7885;42.596;23.044;2022-11-03T00:01:38;93504.66;;;12.66;62.54
15568;BME280;7885;42.596;23.044;2022-11-03T00:04:07;93536.63;;;12.77;62.85
15568;BME280;7885;42.596;23.044;2022-11-03T00:09:55;93540.91;;;12.85;63.03
15568;BME280;7885;42.596;23.044;2022-11-03T00:12:22;93540.13;;;12.91;63.01
15568;BME280;7885;42.596;23.044;2022-11-03T00:14:49;93538.53;;;13.01;63.01
15568;BME280;7885;42.596;23.044;2022-11-03T00:17:17;93537.72;;;13.04;62.35
15568;BME280;7885;42.596;23.044;2022-11-03T00:19:44;93537.72;;;13.04;62.18
15568;BME280;7885;42.596;23.044;2022-11-03T00:22:11;93526.06;;;12.93;62.45
15568;BME280;7885;42.596;23.044;2022-11-03T00:24:37;93521.75;;;12.99;62.12
15568;BME280;7885;42.596;23.044;2022-11-03T00:27:04;93494.06;;;12.83;62.05
15568;BME280;7885;42.596;23.044;2022-11-03T00:29:31;93546.31;;;13.20;61.98
15568;BME280;7885;42.596;23.044;2022-11-03T00:31:58;93520.97;;;13.12;61.82
15568;BME280;7885;42.596;23.044;2022-11-03T00:34:26;93535.38;;;13.27;61.93
15568;BME280;7885;42.596;23.044;2022-11-03T00:36:52;93508.88;;;13.10;61.90
15568;BME280;7885;42.596;23.044;2022-11-03T00:39:19;93517.44;;;13.19;62.15
15568;BME280;7885;42.596;23.044;2022-11-03T00:41:46;93521.31;;;13.22;62.44
15568;BME280;7885;42.596;23.044;2022-11-03T00:44:13;93529.91;;;13.24;62.83
15568;BME280;7885;42.596;23.044;2022-11-03T00:46:40;93535.75;;;13.26;62.82
15568;BME280;7885;42.596;23.044;2022-11-03T00:55:51;93535.72;;;13.33;62.40
15568;BME280;7885;42.596;23.044;2022-11-03T00:58:18;93518.19;;;13.27;62.57
15568;BME280;7885;42.596;23.044;2022-11-03T01:00:44;93531.41;;;13.35;62.20
15568;BME280;7885;42.596;23.044;2022-11-03T01:03:11;93533.75;;;13.44;62.30
15568;BME280;7885;42.596;23.044;2022-11-03T01:05:39;93536.03;;;13.49;62.40
15568;BME280;7885;42.596;23.044;2022-11-03T01:08:23;93533.75;;;13.44;63.13
15568;BME280;7885;42.596;23.044;2022-11-03T01:10:51;93536.84;;;13.42;63.97
15568;BME280;7885;42.596;23.044;2022-11-03T01:13:35;93517.78;;;13.28;64.25
15568;BME280;7885;42.596;23.044;2022-11-03T01:16:04;93518.19;;;13.23;64.05
15568;BME280;7885;42.596;23.044;2022-11-03T01:18:30;93531.03;;;13.33;63.92
15568;BME280;7885;42.596;23.044;2022-11-03T01:20:58;93523.25;;;13.21;63.66
15568;BME280;7885;42.596;23.044;2022-11-03T01:23:24;93529.91;;;13.27;63.55
15568;BME280;7885;42.596;23.044;2022-11-03T01:25:52;93530.63;;;13.31;63.32
15568;BME280;7885;42.596;23.044;2022-11-03T01:28:19;93545.50;;;13.30;63.69
15568;BME280;7885;42.596;23.044;2022-11-03T01:30:46;93532.97;;;13.36;63.74
15568;BME280;7885;42.596;23.044;2022-11-03T01:33:13;93524.41;;;13.31;63.41
15568;BME280;7885;42.596;23.044;2022-11-03T01:35:39;93525.16;;;13.38;64.57
15568;BME280;7885;42.596;23.044;2022-11-03T01:38:06;93530.22;;;13.43;63.33
15568;BME280;7885;42.596;23.044;2022-11-03T01:40:33;93525.13;;;13.45;63.93
15568;BME280;7885;42.596;23.044;2022-11-03T01:43:17;93465.53;;;13.12;63.45
15568;BME280;7885;42.596;23.044;2022-11-03T01:45:46;93524.34;;;13.45;63.81
15568;BME280;7885;42.596;23.044;2022-11-03T01:48:16;93516.53;;;13.43;64.34
15568;BME280;7885;42.596;23.044;2022-11-03T01:50:44;93527.84;;;13.45;64.66
15568;BME280;7885;42.596;23.044;2022-11-03T01:53:13;93531.00;;;13.40;64.80
15568;BME280;7885;42.596;23.044;2022-11-03T01:55:42;93532.97;;;13.36;64.88
15568;BME280;7885;42.596;23.044;2022-11-03T01:58:14;93505.31;;;13.24;64.59
15568;BME280;7885;42.596;23.044;2022-11-03T02:00:45;93518.22;;;13.20;64.71
15568;BME280;7885;42.596;23.044;2022-11-03T02:03:14;93526.78;;;13.22;65.50
15568;BME280;7885;42.596;23.044;2022-11-03T02:05:43;93528.34;;;13.19;65.61
15568;BME280;7885;42.596;23.044;2022-11-03T02:08:14;93530.31;;;13.11;65.46
15568;BME280;7885;42.596;23.044;2022-11-03T02:10:42;93525.28;;;12.99;65.40
15568;BME280;7885;42.596;23.044;2022-11-03T02:13:15;93530.72;;;13.06;65.47
15568;BME280;7885;42.596;23.044;2022-11-03T02:15:46;93535.00;;;12.97;65.74
15568;BME280;7885;42.596;23.044;2022-11-03T02:18:15;93537.38;;;12.88;66.61
15568;BME280;7885;42.596;23.044;2022-11-03T02:20:45;93503.09;;;12.58;66.62
15568;BME280;7885;42.596;23.044;2022-11-03T02:23:25;93538.56;;;12.69;67.19
15568;BME280;7885;42.596;23.044;2022-11-03T02:25:56;93480.88;;;12.35;67.22
15568;BME280;7885;42.596;23.044;2022-11-03T02:28:24;93533.13;;;12.58;67.41
15568;BME280;7885;42.596;23.044;2022-11-03T02:31:01;93537.03;;;12.61;66.88
15568;BME280;7885;42.596;23.044;2022-11-03T02:33:40;93535.09;;;12.61;67.05
15568;BME280;7885;42.596;23.044;2022-11-03T02:36:11;93526.13;;;12.50;67.58
15568;BME280;7885;42.596;23.044;2022-11-03T02:38:45;93521.44;;;12.51;67.18
15568;BME280;7885;42.596;23.044;2022-11-03T02:41:15;93537.03;;;12.50;67.20
15568;BME280;7885;42.596;23.044;2022-11-03T02:43:44;93539.78;;;12.57;67.00
15568;BME280;7885;42.596;23.044;2022-11-03T02:46:13;93524.19;;;12.51;67.10
15568;BME280;7885;42.596;23.044;2022-11-03T02:48:41;93544.03;;;12.58;66.94
15568;BME280;7885;42.596;23.044;2022-11-03T02:51:08;93509.75;;;12.43;67.00
15568;BME280;7885;42.596;23.044;2022-11-03T02:53:38;93537.03;;;12.64;66.99
15568;BME280;7885;42.596;23.044;2022-11-03T02:56:13;93532.72;;;12.71;66.97
15568;BME280;7885;42.596;23.044;2022-11-03T02:58:48;93533.88;;;12.73;66.77
15568;BME280;7885;42.596;23.044;2022-11-03T03:01:21;93515.97;;;12.65;66.63
15568;BME280;7885;42.596;23.044;2022-11-03T03:03:53;93525.69;;;12.80;66.81
15568;BME280;7885;42.596;23.044;2022-11-03T03:06:22;93514.38;;;12.89;65.58
15568;BME280;7885;42.596;23.044;2022-11-03T03:08:53;93523.69;;;12.98;65.91
15568;BME280;7885;42.596;23.044;2022-11-03T03:11:23;93529.94;;;12.99;66.49
15568;BME280;7885;42.596;23.044;2022-11-03T03:14:04;93520.63;;;12.86;66.44
15568;BME280;7885;42.596;23.044;2022-11-03T03:16:36;93521.78;;;12.85;66.48
15568;BME280;7885;42.596;23.044;2022-11-03T03:19:10;93524.53;;;12.85;66.60
15568;BME280;7885;42.596;23.044;2022-11-03T03:21:44;93524.53;;;12.78;66.72
15568;BME280;7885;42.596;23.044;2022-11-03T03:24:18;93531.56;;;12.79;66.91
15568;BME280;7885;42.596;23.044;2022-11-03T03:26:51;93531.56;;;12.72;67.09
15568;BME280;7885;42.596;23.044;2022-11-03T03:29:21;93471.53;;;12.26;67.15
15568;BME280;7885;42.596;23.044;2022-11-03T03:35:14;93488.69;;;12.26;67.76
15568;BME280;7885;42.596;23.044;2022-11-03T03:37:45;93529.22;;;12.52;67.92
15568;BME280;7885;42.596;23.044;2022-11-03T03:40:16;93485.19;;;12.19;68.19
15568;BME280;7885;42.596;23.044;2022-11-03T03:42:48;93526.13;;;12.36;67.94
15568;BME280;7885;42.596;23.044;2022-11-03T03:45:17;93523.00;;;12.34;68.39
15568;BME280;7885;42.596;23.044;2022-11-03T03:47:45;93534.31;;;12.29;67.87
15568;BME280;7885;42.596;23.044;2022-11-03T03:50:12;93523.00;;;12.13;68.32
15568;BME280;7885;42.596;23.044;2022-11-03T03:52:39;93534.69;;;12.24;68.40
15568;BME280;7885;42.596;23.044;2022-11-03T03:55:12;93530.00;;;12.14;68.19
15568;BME280;7885;42.596;23.044;2022-11-03T03:57:41;93545.22;;;12.19;68.90
15568;BME280;7885;42.596;23.044;2022-11-03T04:03:31;93529.22;;;12.24;68.41
15568;BME280;7885;42.596;23.044;2022-11-03T04:05:58;93530.81;;;12.25;67.79
15568;BME280;7885;42.596;23.044;2022-11-03T04:08:25;93529.22;;;12.17;67.81
15568;BME280;7885;42.596;23.044;2022-11-03T04:10:51;93530.81;;;12.18;68.00
15568;BME280;7885;42.596;23.044;2022-11-03T04:13:35;93517.53;;;12.02;67.68
15568;BME280;7885;42.596;23.044;2022-11-03T04:16:19;93476.19;;;11.69;67.81
15568;BME280;7885;42.596;23.044;2022-11-03T04:19:04;93536.22;;;12.00;68.52
15568;BME280;7885;42.596;23.044;2022-11-03T04:21:49;93466.78;;;11.55;68.45
15568;BME280;7885;42.596;23.044;2022-11-03T04:24:33;93405.97;;;11.12;68.29
15568;BME280;7885;42.596;23.044;2022-11-03T04:27:04;93529.22;;;11.82;67.87
15568;BME280;7885;42.596;23.044;2022-11-03T04:29:31;93516.66;;;11.66;68.29
15568;BME280;7885;42.596;23.044;2022-11-03T04:31:58;93533.81;;;11.63;68.71
15568;BME280;7885;42.596;23.044;2022-11-03T04:34:26;93442.47;;;10.94;69.33
15568;BME280;7885;42.596;23.044;2022-11-03T04:36:53;93534.50;;;11.39;69.98
15568;BME280;7885;42.596;23.044;2022-11-03T04:39:20;93526.72;;;11.41;70.68
15568;BME280;7885;42.596;23.044;2022-11-03T04:41:47;93495.47;;;11.14;71.03
15568;BME280;7885;42.596;23.044;2022-11-03T04:44:14;93476.69;;;10.88;71.75
15568;BME280;7885;42.596;23.044;2022-11-03T04:46:44;93530.13;;;11.21;72.13
15568;BME280;7885;42.596;23.044;2022-11-03T04:49:15;93525.84;;;11.16;72.11
15568;BME280;7885;42.596;23.044;2022-11-03T04:51:45;93476.72;;;10.91;71.94
15568;BME280;7885;42.596;23.044;2022-11-03T04:54:17;93531.38;;;11.30;70.49
15568;BME280;7885;42.596;23.044;2022-11-03T04:56:44;93532.50;;;11.22;70.24
15568;BME280;7885;42.596;23.044;2022-11-03T04:59:12;93525.09;;;11.19;69.56
15568;BME280;7885;42.596;23.044;2022-11-03T05:01:40;93541.44;;;11.19;70.24
15568;BME280;7885;42.596;23.044;2022-11-03T05:04:11;93539.50;;;11.20;71.18
15568;BME280;7885;42.596;23.044;2022-11-03T05:06:39;93534.81;;;11.17;70.74
15568;BME280;7885;42.596;23.044;2022-11-03T05:09:12;93541.81;;;11.21;70.91
15568;BME280;7885;42.596;23.044;2022-11-03T05:11:41;93542.19;;;11.16;71.23
15568;BME280;7885;42.596;23.044;2022-11-03T05:14:15;93546.09;;;11.19;72.71
15568;BME280;7885;42.596;23.044;2022-11-03T05:16:42;93540.25;;;11.17;73.20
15568;BME280;7885;42.596;23.044;2022-11-03T05:19:12;93544.53;;;11.21;73.00
15568;BME280;7885;42.596;23.044;2022-11-03T05:21:40;93541.84;;;11.25;72.42
15568;BME280;7885;42.596;23.044;2022-11-03T05:24:11;93540.28;;;11.24;71.64
15568;BME280;7885;42.596;23.044;2022-11-03T05:26:39;93544.59;;;11.35;71.74
15568;BME280;7885;42.596;23.044;2022-11-03T05:29:10;93546.19;;;11.36;71.00
15568;BME280;7885;42.596;23.044;2022-11-03T05:31:40;93543.84;;;11.42;70.31
15568;BME280;7885;42.596;23.044;2022-11-03T05:34:21;93499.38;;;11.13;70.44
15568;BME280;7885;42.596;23.044;2022-11-03T05:36:50;93550.16;;;11.60;69.45
15568;BME280;7885;42.596;23.044;2022-11-03T05:39:27;93554.50;;;11.72;69.22
15568;BME280;7885;42.596;23.044;2022-11-03T05:41:55;93560.00;;;11.86;69.96
15568;BME280;7885;42.596;23.044;2022-11-03T05:44:27;93562.72;;;11.96;69.90
15568;BME280;7885;42.596;23.044;2022-11-03T05:46:55;93515.94;;;11.84;69.23
15568;BME280;7885;42.596;23.044;2022-11-03T05:49:22;93569.03;;;12.39;68.79
15568;BME280;7885;42.596;23.044;2022-11-03T05:51:49;93567.47;;;12.59;68.32
15568;BME280;7885;42.596;23.044;2022-11-03T05:54:19;93547.19;;;12.60;67.60
15568;BME280;7885;42.596;23.044;2022-11-03T05:56:49;93572.09;;;12.94;66.43
15568;BME280;7885;42.596;23.044;2022-11-03T05:59:19;93580.28;;;13.26;65.87
15568;BME280;7885;42.596;23.044;2022-11-03T06:01:48;93585.22;;;13.59;65.08
15568;BME280;7885;42.596;23.044;2022-11-03T06:04:18;93582.63;;;14.11;63.13
15568;BME280;7885;42.596;23.044;2022-11-03T06:06:49;93547.50;;;15.02;59.70
15568;BME280;7885;42.596;23.044;2022-11-03T06:09:20;93540.47;;;16.29;55.26
15568;BME280;7885;42.596;23.044;2022-11-03T06:11:51;93594.81;;;17.64;52.50
15568;BME280;7885;42.596;23.044;2022-11-03T06:14:20;93566.38;;;18.62;48.75
15568;BME280;7885;42.596;23.044;2022-11-03T06:16:48;93602.19;;;20.17;45.23
15568;BME280;7885;42.596;23.044;2022-11-03T06:19:22;93601.41;;;21.46;41.53
15568;BME280;7885;42.596;23.044;2022-11-03T06:21:53;93603.03;;;22.78;38.17
15568;BME280;7885;42.596;23.044;2022-11-03T06:24:23;93595.63;;;24.00;35.05
15568;BME280;7885;42.596;23.044;2022-11-03T06:26:52;93593.91;;;25.08;32.50
15568;BME280;7885;42.596;23.044;2022-11-03T06:29:20;93590.44;;;26.02;31.00
15568;BME280;7885;42.596;23.044;2022-11-03T06:31:48;93604.34;;;26.94;29.16
15568;BME280;7885;42.596;23.044;2022-11-03T06:34:30;93606.97;;;27.82;27.87
15568;BME280;7885;42.596;23.044;2022-11-03T06:37:04;93590.19;;;28.94;25.98
15568;BME280;7885;42.596;23.044;2022-11-03T06:39:34;93576.78;;;29.72;24.60
15568;BME280;7885;42.596;23.044;2022-11-03T06:42:10;93611.41;;;30.59;23.43
15568;BME280;7885;42.596;23.044;2022-11-03T06:44:39;93596.22;;;30.34;23.41
15568;BME280;7885;42.596;23.044;2022-11-03T06:47:15;93617.47;;;29.93;23.73
15568;BME280;7885;42.596;23.044;2022-11-03T06:49:45;93605.25;;;29.59;24.12
15568;BME280;7885;42.596;23.044;2022-11-03T06:52:22;93618.56;;;30.60;23.45
15568;BME280;7885;42.596;23.044;2022-11-03T06:58:14;93615.16;;;33.73;19.92
15568;BME280;7885;42.596;23.044;2022-11-03T07:00:43;93615.22;;;33.92;19.55
15568;BME280;7885;42.596;23.044;2022-11-03T07:03:14;93575.44;;;33.66;19.73
15568;BME280;7885;42.596;23.044;2022-11-03T07:05:44;93613.47;;;33.89;19.51
15568;BME280;7885;42.596;23.044;2022-11-03T07:11:34;93606.81;;;34.78;18.77
15568;BME280;7885;42.596;23.044;2022-11-03T07:14:11;93604.72;;;33.27;20.31
15568;BME280;7885;42.596;23.044;2022-11-03T07:16:41;93594.38;;;33.00;20.77
15568;BME280;7885;42.596;23.044;2022-11-03T07:19:12;93592.03;;;33.75;20.03
15568;BME280;7885;42.596;23.044;2022-11-03T07:21:43;93595.13;;;34.68;19.38
15568;BME280;7885;42.596;23.044;2022-11-03T07:24:18;93596.91;;;35.40;18.46
15568;BME280;7885;42.596;23.044;2022-11-03T07:26:47;93603.38;;;35.99;17.50
15568;BME280;7885;42.596;23.044;2022-11-03T07:29:19;93592.13;;;35.48;17.89
15568;BME280;7885;42.596;23.044;2022-11-03T07:31:47;93594.50;;;35.44;17.69
15568;BME280;7885;42.596;23.044;2022-11-03T07:34:21;93600.91;;;35.32;18.30
15568;BME280;7885;42.596;23.044;2022-11-03T07:36:50;93591.41;;;35.29;17.89
15568;BME280;7885;42.596;23.044;2022-11-03T07:39:19;93590.50;;;35.21;18.22
15568;BME280;7885;42.596;23.044;2022-11-03T07:41:46;93542.53;;;35.10;18.16
15568;BME280;7885;42.596;23.044;2022-11-03T07:44:18;93592.28;;;36.80;17.18
15568;BME280;7885;42.596;23.044;2022-11-03T07:46:47;93592.56;;;38.19;16.17
15568;BME280;7885;42.596;23.044;2022-11-03T07:49:22;93593.47;;;39.14;15.03
15568;BME280;7885;42.596;23.044;2022-11-03T07:51:50;93594.75;;;39.64;14.79
15568;BME280;7885;42.596;23.044;2022-11-03T07:54:20;93583.69;;;39.46;14.66
15568;BME280;7885;42.596;23.044;2022-11-03T07:56:50;93593.03;;;39.69;14.39
15568;BME280;7885;42.596;23.044;2022-11-03T07:59:21;93579.69;;;39.49;14.42
15568;BME280;7885;42.596;23.044;2022-11-03T08:01:50;93572.88;;;38.93;14.82
15568;BME280;7885;42.596;23.044;2022-11-03T08:04:20;93510.81;;;38.40;14.54
15568;BME280;7885;42.596;23.044;2022-11-03T08:06:48;93567.97;;;38.01;14.80
15568;BME280;7885;42.596;23.044;2022-11-03T08:09:16;93561.31;;;37.36;15.42
15568;BME280;7885;42.596;23.044;2022-11-03T08:11:42;93567.97;;;36.45;16.37
15568;BME280;7885;42.596;23.044;2022-11-03T08:14:09;93575.53;;;36.16;16.47
15568;BME280;7885;42.596;23.044;2022-11-03T08:16:38;93512.50;;;36.23;16.30
15568;BME280;7885;42.596;23.044;2022-11-03T08:19:04;93563.56;;;37.17;16.10
15568;BME280;7885;42.596;23.044;2022-11-03T08:21:32;93556.16;;;36.80;15.82
15568;BME280;7885;42.596;23.044;2022-11-03T08:23:59;93548.38;;;37.49;15.56
15568;BME280;7885;42.596;23.044;2022-11-03T08:26:26;93559.09;;;38.69;14.93
15568;BME280;7885;42.596;23.044;2022-11-03T08:28:53;93548.78;;;39.68;13.69
15568;BME280;7885;42.596;23.044;2022-11-03T08:31:20;93559.00;;;40.47;13.23
15568;BME280;7885;42.596;23.044;2022-11-03T08:33:48;93553.81;;;40.75;12.72
15568;BME280;7885;42.596;23.044;2022-11-03T08:36:15;93554.19;;;41.19;12.90
15568;BME280;7885;42.596;23.044;2022-11-03T08:38:42;93545.28;;;41.08;12.83
15568;BME280;7885;42.596;23.044;2022-11-03T08:41:09;93524.78;;;40.94;12.75
15568;BME280;7885;42.596;23.044;2022-11-03T08:43:35;93563.97;;;41.41;12.68
15568;BME280;7885;42.596;23.044;2022-11-03T08:46:02;93545.56;;;41.59;12.66
15568;BME280;7885;42.596;23.044;2022-11-03T08:48:29;93558.88;;;42.14;12.18
15568;BME280;7885;42.596;23.044;2022-11-03T08:50:57;93524.69;;;42.41;11.83
15568;BME280;7885;42.596;23.044;2022-11-03T08:53:25;93544.72;;;42.92;11.38
15568;BME280;7885;42.596;23.044;2022-11-03T08:55:52;93556.47;;;43.31;11.28
15568;BME280;7885;42.596;23.044;2022-11-03T08:58:19;93545.66;;;43.39;11.41
15568;BME280;7885;42.596;23.044;2022-11-03T09:00:46;93530.41;;;42.41;11.47
15568;BME280;7885;42.596;23.044;2022-11-03T09:03:13;93549.44;;;42.80;11.70
15568;BME280;7885;42.596;23.044;2022-11-03T09:05:40;93523.88;;;42.65;11.91
15568;BME280;7885;42.596;23.044;2022-11-03T09:08:09;93513.91;;;42.49;11.96
15568;BME280;7885;42.596;23.044;2022-11-03T09:10:35;93495.41;;;42.67;11.36
15568;BME280;7885;42.596;23.044;2022-11-03T09:13:02;93546.00;;;43.43;11.10
15568;BME280;7885;42.596;23.044;2022-11-03T09:15:29;93532.78;;;43.57;11.01
15568;BME280;7885;42.596;23.044;2022-11-03T09:17:56;93535.09;;;44.04;11.27
15568;BME280;7885;42.596;23.044;2022-11-03T09:20:23;93545.81;;;44.50;10.62
15568;BME280;7885;42.596;23.044;2022-11-03T09:22:50;93543.22;;;43.62;10.75
15568;BME280;7885;42.596;23.044;2022-11-03T09:25:18;93530.06;;;43.05;11.26
15568;BME280;7885;42.596;23.044;2022-11-03T09:27:45;93501.81;;;43.19;11.33
15568;BME280;7885;42.596;23.044;2022-11-03T09:30:12;93513.53;;;42.27;11.88
15568;BME280;7885;42.596;23.044;2022-11-03T09:32:40;93511.09;;;40.38;13.00
15568;BME280;7885;42.596;23.044;2022-11-03T09:35:07;93506.59;;;39.89;13.40
15568;BME280;7885;42.596;23.044;2022-11-03T09:37:34;93500.78;;;40.42;13.03
15568;BME280;7885;42.596;23.044;2022-11-03T09:40:01;93492.34;;;40.67;12.99
15568;BME280;7885;42.596;23.044;2022-11-03T09:42:30;93500.50;;;40.78;12.71
15568;BME280;7885;42.596;23.044;2022-11-03T09:44:58;93504.00;;;40.94;12.80
15568;BME280;7885;42.596;23.044;2022-11-03T09:47:28;93499.97;;;41.37;12.55
15568;BME280;7885;42.596;23.044;2022-11-03T09:49:57;93485.00;;;41.78;12.27
15568;BME280;7885;42.596;23.044;2022-11-03T09:52:24;93499.25;;;42.45;12.03
15568;BME280;7885;42.596;23.044;2022-11-03T09:54:52;93470.31;;;42.23;11.99
15568;BME280;7885;42.596;23.044;2022-11-03T09:57:20;93492.03;;;42.26;12.01
15568;BME280;7885;42.596;23.044;2022-11-03T09:59:49;93459.28;;;41.78;11.85
15568;BME280;7885;42.596;23.044;2022-11-03T10:02:23;93480.03;;;40.97;12.79
15568;BME280;7885;42.596;23.044;2022-11-03T10:04:52;93476.41;;;41.28;12.71
15568;BME280;7885;42.596;23.044;2022-11-03T10:07:19;93440.38;;;41.33;12.20
15568;BME280;7885;42.596;23.044;2022-11-03T10:13:10;93438.38;;;41.51;12.28
15568;BME280;7885;42.596;23.044;2022-11-03T10:15:40;93469.31;;;41.87;12.06
15568;BME280;7885;42.596;23.044;2022-11-03T10:18:08;93467.88;;;40.96;12.14
15568;BME280;7885;42.596;23.044;2022-11-03T10:20:35;93429.44;;;40.50;12.49
15568;BME280;7885;42.596;23.044;2022-11-03T10:23:01;93452.44;;;41.24;12.34
15568;BME280;7885;42.596;23.044;2022-11-03T10:25:33;93442.97;;;41.46;12.49
15568;BME280;7885;42.596;23.044;2022-11-03T10:28:18;93450.09;;;41.38;11.75
15568;BME280;7885;42.596;23.044;2022-11-03T10:30:54;93449.25;;;41.45;12.00
15568;BME280;7885;42.596;23.044;2022-11-03T10:33:26;93428.38;;;42.01;11.74
15568;BME280;7885;42.596;23.044;2022-11-03T10:35:55;93437.38;;;42.66;11.30
15568;BME280;7885;42.596;23.044;2022-11-03T10:38:26;93436.94;;;42.70;10.59
15568;BME280;7885;42.596;23.044;2022-11-03T10:40:53;93429.69;;;42.69;10.61
15568;BME280;7885;42.596;23.044;2022-11-03T10:43:20;93419.28;;;42.64;10.90
15568;BME280;7885;42.596;23.044;2022-11-03T10:45:48;93413.66;;;42.83;10.56
15568;BME280;7885;42.596;23.044;2022-11-03T10:48:21;93420.88;;;43.01;10.51
15568;BME280;7885;42.596;23.044;2022-11-03T10:50:50;93407.34;;;43.11;10.25
15568;BME280;7885;42.596;23.044;2022-11-03T10:53:18;93396.59;;;43.02;10.21
15568;BME280;7885;42.596;23.044;2022-11-03T10:55:46;93396.06;;;43.13;9.91
15568;BME280;7885;42.596;23.044;2022-11-03T10:58:13;93393.78;;;42.85;9.94
15568;BME280;7885;42.596;23.044;2022-11-03T11:00:40;93398.28;;;42.78;10.41
15568;BME280;7885;42.596;23.044;2022-11-03T11:03:10;93394.44;;;42.49;10.84
15568;BME280;7885;42.596;23.044;2022-11-03T11:05:45;93383.50;;;41.87;11.06
15568;BME280;7885;42.596;23.044;2022-11-03T11:08:13;93379.69;;;41.25;11.38
15568;BME280;7885;42.596;23.044;2022-11-03T11:10:43;93354.00;;;40.28;11.33
15568;BME280;7885;42.596;23.044;2022-11-03T11:13:23;93381.78;;;40.27;12.09
15568;BME280;7885;42.596;23.044;2022-11-03T11:15:51;93338.44;;;39.74;12.29
15568;BME280;7885;42.596;23.044;2022-11-03T11:21:56;93369.25;;;38.84;12.77
15568;BME280;7885;42.596;23.044;2022-11-03T11:24:59;93360.66;;;38.03;13.27
15568;BME280;7885;42.596;23.044;2022-11-03T11:27:55;93352.31;;;37.69;13.36
15568;BME280;7885;42.596;23.044;2022-11-03T11:33:32;93343.63;;;36.69;13.38
15568;BME280;7885;42.596;23.044;2022-11-03T11:36:04;93331.81;;;36.58;13.57
15568;BME280;7885;42.596;23.044;2022-11-03T11:39:03;93330.94;;;36.29;13.72
15568;BME280;7885;42.596;23.044;2022-11-03T11:42:07;93340.88;;;36.22;13.64
15568;BME280;7885;42.596;23.044;2022-11-03T11:44:57;93329.84;;;36.32;13.57
15568;BME280;7885;42.596;23.044;2022-11-03T11:47:39;93313.38;;;36.30;13.93
15568;BME280;7885;42.596;23.044;2022-11-03T11:50:29;93326.16;;;36.44;14.23
15568;BME280;7885;42.596;23.044;2022-11-03T11:53:11;93321.13;;;36.51;13.32
15568;BME280;7885;42.596;23.044;2022-11-03T11:55:43;93306.28;;;36.58;12.97
15568;BME280;7885;42.596;23.044;2022-11-03T11:58:33;93313.59;;;36.74;13.61
15568;BME280;7885;42.596;23.044;2022-11-03T12:01:05;93310.69;;;36.66;13.35
15568;BME280;7885;42.596;23.044;2022-11-03T12:03:38;93287.53;;;36.13;13.89
15568;BME280;7885;42.596;23.044;2022-11-03T12:06:06;93305.34;;;36.21;13.76
15568;BME280;7885;42.596;23.044;2022-11-03T12:08:34;93301.50;;;35.98;14.05
15568;BME280;7885;42.596;23.044;2022-11-03T12:11:04;93272.44;;;35.84;14.15
15568;BME280;7885;42.596;23.044;2022-11-03T12:16:33;93295.44;;;35.81;14.39
15568;BME280;7885;42.596;23.044;2022-11-03T12:19:34;93289.19;;;35.95;14.25
15568;BME280;7885;42.596;23.044;2022-11-03T12:22:02;93283.19;;;35.99;14.34
15568;BME280;7885;42.596;23.044;2022-11-03T12:24:35;93288.16;;;36.06;14.64
15568;BME280;7885;42.596;23.044;2022-11-03T12:27:18;93277.66;;;35.33;14.33
15568;BME280;7885;42.596;23.044;2022-11-03T12:29:45;93280.47;;;35.07;14.91
15568;BME280;7885;42.596;23.044;2022-11-03T12:32:12;93278.00;;;34.59;15.27
15568;BME280;7885;42.596;23.044;2022-11-03T12:34:39;93251.06;;;34.13;15.41
15568;BME280;7885;42.596;23.044;2022-11-03T12:37:06;93264.47;;;34.25;15.38
15568;BME280;7885;42.596;23.044;2022-11-03T12:39:33;93255.53;;;34.21;15.47
15568;BME280;7885;42.596;23.044;2022-11-03T12:42:00;93239.91;;;34.20;15.54
15568;BME280;7885;42.596;23.044;2022-11-03T12:44:28;93168.88;;;33.66;15.87
15568;BME280;7885;42.596;23.044;2022-11-03T12:46:55;93257.72;;;34.28;15.73
15568;BME280;7885;42.596;23.044;2022-11-03T12:49:22;93257.72;;;34.28;15.76
15568;BME280;7885;42.596;23.044;2022-11-03T12:51:48;93254.66;;;34.13;16.04
15568;BME280;7885;42.596;23.044;2022-11-03T12:54:15;93251.06;;;33.94;15.77
15568;BME280;7885;42.596;23.044;2022-11-03T12:56:42;93248.63;;;33.72;16.13
15568;BME280;7885;42.596;23.044;2022-11-03T12:59:09;93229.59;;;33.35;16.32
15568;BME280;7885;42.596;23.044;2022-11-03T13:01:37;93234.63;;;33.42;16.51
15568;BME280;7885;42.596;23.044;2022-11-03T13:04:04;93228.84;;;33.34;16.45
15568;BME280;7885;42.596;23.044;2022-11-03T13:06:31;93225.72;;;33.19;16.27
15568;BME280;7885;42.596;23.044;2022-11-03T13:08:57;93210.25;;;32.83;16.59
15568;BME280;7885;42.596;23.044;2022-11-03T13:11:25;93229.97;;;32.83;16.74
15568;BME280;7885;42.596;23.044;2022-11-03T13:14:09;93199.47;;;32.63;16.46
15568;BME280;7885;42.596;23.044;2022-11-03T13:16:37;93220.38;;;32.73;16.83
15568;BME280;7885;42.596;23.044;2022-11-03T13:19:03;93196.63;;;32.38;16.63
15568;BME280;7885;42.596;23.044;2022-11-03T13:21:30;93225.94;;;32.54;16.62
15568;BME280;7885;42.596;23.044;2022-11-03T13:23:57;93208.16;;;32.16;16.76
15568;BME280;7885;42.596;23.044;2022-11-03T13:26:24;93203.56;;;32.13;17.06
15568;BME280;7885;42.596;23.044;2022-11-03T13:28:50;93221.75;;;31.77;17.19
15568;BME280;7885;42.596;23.044;2022-11-03T13:31:17;93160.91;;;30.92;17.89
15568;BME280;7885;42.596;23.044;2022-11-03T13:33:45;93216.44;;;31.32;17.88
15568;BME280;7885;42.596;23.044;2022-11-03T13:36:12;93215.97;;;31.23;17.66
15568;BME280;7885;42.596;23.044;2022-11-03T13:38:39;93220.38;;;31.13;17.93
15568;BME280;7885;42.596;23.044;2022-11-03T13:41:06;93215.03;;;31.09;17.83
15568;BME280;7885;42.596;23.044;2022-11-03T13:43:32;93219.41;;;30.93;18.34
15568;BME280;7885;42.596;23.044;2022-11-03T13:45:59;93202.47;;;30.52;18.67
15568;BME280;7885;42.596;23.044;2022-11-03T13:48:26;93215.03;;;30.24;18.75
15568;BME280;7885;42.596;23.044;2022-11-03T13:50:55;93206.94;;;29.92;19.08
15568;BME280;7885;42.596;23.044;2022-11-03T13:53:21;93202.56;;;29.75;19.34